Time;durP1;ratioP1;P1;durP2;ratioP2;P2;SDS_P1;SDS_P2;PMS_P1;PMS_P2;Temp;Humidity;BMP_temperature;BMP_pressure;BME280_temperature;BME280_humidity;BME280_pressure;Samples;Min_cycle;Max_cycle;Signal;HPM_P1;HPM_P2
2021/11/30 00:03:06;;;;;;;2.65;1.45;;;4.30;93.00;;;;;;10120450;28;20533;-73
2021/11/30 00:07:57;;;;;;;2.15;1.10;;;4.20;92.90;;;;;;10121302;28;20529;-72
2021/11/30 00:12:48;;;;;;;2.47;1.70;;;4.20;92.80;;;;;;10120212;28;20044;-72
2021/11/30 00:17:38;;;;;;;2.40;1.30;;;4.20;92.80;;;;;;10129027;28;20044;-72
2021/11/30 00:22:29;;;;;;;1.88;0.85;;;4.20;92.80;;;;;;10112937;28;20029;-72
2021/11/30 00:27:20;;;;;;;2.22;1.02;;;4.20;92.70;;;;;;10114339;28;20411;-71
2021/11/30 00:32:11;;;;;;;2.33;1.20;;;4.20;92.60;;;;;;10122776;28;20423;-73
2021/11/30 00:37:03;;;;;;;1.00;0.80;;;4.20;92.60;;;;;;10124841;28;20040;-73
2021/11/30 00:41:56;;;;;;;1.92;1.20;;;4.10;92.50;;;;;;10123792;28;20056;-71
2021/11/30 00:46:50;;;;;;;2.53;1.23;;;4.10;92.50;;;;;;10118060;28;20410;-72
2021/11/30 00:51:44;;;;;;;1.08;0.73;;;4.10;92.30;;;;;;10120265;28;20413;-73
2021/11/30 00:56:38;;;;;;;1.90;1.10;;;4.10;92.40;;;;;;10119523;28;20214;-71
2021/11/30 01:01:31;;;;;;;3.05;1.50;;;4.20;92.40;;;;;;10114846;28;20044;-72
2021/11/30 01:06:21;;;;;;;3.05;1.52;;;4.20;92.40;;;;;;10123806;28;20078;-71
2021/11/30 01:11:12;;;;;;;2.70;1.35;;;4.20;92.30;;;;;;10125237;28;20040;-71
2021/11/30 01:16:04;;;;;;;1.33;0.80;;;4.30;92.30;;;;;;10113681;28;20115;-73
2021/11/30 01:20:54;;;;;;;3.70;1.25;;;4.20;92.20;;;;;;10119190;28;20444;-73
2021/11/30 01:25:46;;;;;;;2.78;1.10;;;4.20;92.30;;;;;;10123486;28;20361;-72
2021/11/30 01:30:37;;;;;;;3.58;1.48;;;4.20;92.20;;;;;;10126574;28;20422;-73
2021/11/30 01:35:28;;;;;;;1.33;0.75;;;4.20;92.20;;;;;;10127257;28;20041;-72
2021/11/30 01:40:21;;;;;;;4.72;1.17;;;4.10;92.20;;;;;;10113641;28;20029;-72
2021/11/30 01:50:24;;;;;;;4.13;1.17;;;4.10;92.30;;;;;;10125287;28;20075;-72
2021/11/30 01:55:15;;;;;;;2.65;1.17;;;4.00;92.20;;;;;;10124329;28;20058;-73
2021/11/30 02:00:07;;;;;;;1.77;1.02;;;4.00;92.30;;;;;;10120287;28;20064;-72
2021/11/30 02:04:58;;;;;;;3.53;1.20;;;4.00;92.30;;;;;;10125467;28;20036;-71
2021/11/30 02:09:49;;;;;;;2.13;0.60;;;4.00;92.30;;;;;;10115421;28;20024;-73
2021/11/30 02:14:42;;;;;;;1.35;1.00;;;4.00;92.30;;;;;;10122230;28;20041;-71
2021/11/30 02:19:41;;;;;;;5.65;1.40;;;4.00;92.30;;;;;;10111223;28;20399;-72
2021/11/30 02:24:32;;;;;;;1.88;0.88;;;4.00;92.40;;;;;;10125391;28;20513;-72
2021/11/30 02:29:23;;;;;;;2.60;1.10;;;4.00;92.70;;;;;;10121191;28;20035;-72
2021/11/30 02:34:15;;;;;;;1.33;0.85;;;4.00;92.40;;;;;;10119989;28;20037;-72
2021/11/30 02:39:09;;;;;;;2.22;1.38;;;4.10;92.40;;;;;;10118709;28;20044;-72
2021/11/30 02:44:00;;;;;;;0.88;0.75;;;4.10;92.40;;;;;;10108272;28;20295;-73
2021/11/30 02:48:51;;;;;;;2.40;1.15;;;4.10;92.30;;;;;;10121028;28;20033;-72
2021/11/30 02:53:42;;;;;;;3.60;1.52;;;4.00;92.40;;;;;;10115830;28;20085;-72
2021/11/30 02:58:32;;;;;;;3.53;1.10;;;4.00;92.40;;;;;;10107936;28;20506;-71
2021/11/30 03:03:26;;;;;;;2.22;1.20;;;4.10;92.30;;;;;;10122122;28;20490;-73
2021/11/30 03:08:17;;;;;;;2.88;1.25;;;4.10;92.60;;;;;;10121517;28;20263;-71
2021/11/30 03:13:08;;;;;;;2.60;1.10;;;4.10;92.40;;;;;;10104364;28;20423;-71
2021/11/30 03:17:59;;;;;;;1.75;0.95;;;4.00;92.30;;;;;;10125843;28;20116;-72
2021/11/30 03:22:51;;;;;;;0.95;0.75;;;4.10;92.50;;;;;;10124093;28;20139;-73
2021/11/30 03:27:42;;;;;;;1.85;0.85;;;4.00;92.30;;;;;;10110078;28;20099;-73
2021/11/30 03:37:25;;;;;;;1.60;1.30;;;4.00;92.30;;;;;;10124476;28;20524;-72
2021/11/30 03:42:15;;;;;;;2.38;1.08;;;4.10;92.40;;;;;;10121129;28;20037;-72
2021/11/30 03:47:06;;;;;;;1.40;0.80;;;4.00;92.30;;;;;;10117443;28;20054;-72
2021/11/30 03:51:57;;;;;;;3.08;1.20;;;4.10;92.30;;;;;;10121044;28;20017;-73
2021/11/30 03:56:48;;;;;;;1.50;0.88;;;4.00;92.30;;;;;;10109125;28;20230;-74
2021/11/30 04:01:40;;;;;;;2.30;1.13;;;4.00;92.30;;;;;;10119709;28;20036;-72
2021/11/30 04:06:30;;;;;;;2.03;1.30;;;4.00;92.20;;;;;;10106179;28;20131;-71
2021/11/30 04:11:21;;;;;;;5.03;1.30;;;4.00;92.30;;;;;;10111749;28;20029;-73
2021/11/30 04:16:12;;;;;;;3.83;1.17;;;4.00;92.20;;;;;;10105213;28;20115;-73
2021/11/30 04:21:03;;;;;;;2.38;1.13;;;4.00;92.20;;;;;;10122071;28;20098;-72
2021/11/30 04:25:54;;;;;;;2.45;1.08;;;4.00;92.20;;;;;;10112442;28;20055;-72
2021/11/30 04:30:46;;;;;;;2.42;1.10;;;4.00;92.20;;;;;;10111680;28;20528;-73
2021/11/30 04:35:37;;;;;;;1.10;0.73;;;4.00;92.10;;;;;;10110501;28;20040;-71
2021/11/30 04:40:27;;;;;;;1.60;1.17;;;4.00;92.20;;;;;;10118375;28;20576;-73
2021/11/30 04:50:42;;;;;;;1.70;0.93;;;4.00;92.10;;;;;;10099515;28;20041;-72
2021/11/30 04:55:32;;;;;;;2.55;0.98;;;4.00;92.10;;;;;;10120823;28;20020;-72
2021/11/30 05:00:24;;;;;;;1.42;1.00;;;4.00;92.00;;;;;;10123450;28;20515;-72
2021/11/30 05:05:15;;;;;;;2.47;1.23;;;4.00;92.00;;;;;;10119418;28;20016;-71
2021/11/30 05:10:06;;;;;;;2.05;1.08;;;4.00;92.30;;;;;;10130102;28;20551;-71
2021/11/30 05:14:57;;;;;;;2.25;1.83;;;4.10;92.00;;;;;;10116500;28;20068;-72
2021/11/30 05:19:47;;;;;;;1.60;1.17;;;4.00;91.90;;;;;;10119430;28;20139;-72
2021/11/30 05:24:38;;;;;;;4.65;1.38;;;4.10;91.90;;;;;;10111294;28;20355;-74
2021/11/30 05:29:28;;;;;;;1.98;1.52;;;4.10;91.80;;;;;;10117650;28;20539;-72
2021/11/30 05:34:19;;;;;;;1.27;0.90;;;4.00;91.90;;;;;;10124021;28;20588;-73
2021/11/30 05:39:10;;;;;;;1.70;1.23;;;4.00;91.80;;;;;;10120751;28;20060;-73
2021/11/30 05:44:01;;;;;;;1.73;1.63;;;4.00;91.80;;;;;;10114560;28;20085;-73
2021/11/30 05:48:52;;;;;;;3.47;1.17;;;4.00;91.80;;;;;;10123748;28;20081;-73
2021/11/30 05:53:42;;;;;;;3.30;1.10;;;4.00;91.70;;;;;;10141205;28;20034;-73
2021/11/30 05:58:36;;;;;;;1.48;1.00;;;3.90;91.80;;;;;;10114612;28;20182;-72
2021/11/30 06:03:30;;;;;;;2.35;1.17;;;4.00;91.70;;;;;;10119240;28;20455;-72
2021/11/30 06:08:21;;;;;;;2.45;1.27;;;4.00;91.70;;;;;;10118841;28;20392;-74
2021/11/30 06:13:12;;;;;;;2.40;1.02;;;4.00;91.80;;;;;;10119242;28;20060;-72
2021/11/30 06:18:03;;;;;;;3.08;1.17;;;4.00;91.70;;;;;;10118490;28;20107;-72
2021/11/30 06:22:53;;;;;;;3.38;1.65;;;3.90;91.70;;;;;;10113182;28;20043;-70
2021/11/30 06:27:45;;;;;;;3.75;1.42;;;4.00;91.70;;;;;;10111018;28;20112;-71
2021/11/30 06:32:36;;;;;;;2.15;1.45;;;4.00;91.70;;;;;;10118257;28;20166;-71
2021/11/30 06:37:27;;;;;;;5.82;1.77;;;3.90;91.70;;;;;;10113023;28;20507;-71
2021/11/30 06:42:18;;;;;;;3.63;1.25;;;4.00;91.70;;;;;;10114282;28;20044;-70
2021/11/30 06:47:09;;;;;;;1.88;1.23;;;4.00;91.60;;;;;;10110063;28;20024;-71
2021/11/30 06:52:00;;;;;;;2.03;1.13;;;3.90;91.60;;;;;;10124801;28;20333;-71
2021/11/30 06:56:51;;;;;;;1.60;0.95;;;3.90;91.70;;;;;;10124802;28;20089;-70
2021/11/30 07:01:43;;;;;;;1.52;0.98;;;3.90;91.60;;;;;;10127358;28;20021;-70
2021/11/30 07:16:25;;;;;;;3.78;0.82;;;3.90;91.70;;;;;;10108419;28;20063;-69
2021/11/30 07:21:16;;;;;;;3.08;1.02;;;4.00;91.70;;;;;;10117615;28;20040;-71
2021/11/30 07:26:07;;;;;;;2.08;1.00;;;3.90;91.60;;;;;;10127054;28;20036;-71
2021/11/30 07:31:04;;;;;;;2.90;1.48;;;3.90;91.70;;;;;;10125339;28;20044;-69
2021/11/30 07:35:54;;;;;;;3.65;1.17;;;4.00;91.70;;;;;;10117984;28;20048;-68
2021/11/30 07:40:45;;;;;;;5.50;1.40;;;4.00;91.60;;;;;;10119713;28;20025;-70
2021/11/30 07:45:36;;;;;;;2.75;1.10;;;4.00;91.60;;;;;;10123070;28;20020;-70
2021/11/30 07:50:27;;;;;;;3.85;1.58;;;4.00;91.60;;;;;;10120547;28;20050;-74
2021/11/30 07:55:18;;;;;;;2.60;1.20;;;4.00;91.60;;;;;;10118561;28;20083;-73
2021/11/30 08:00:16;;;;;;;1.88;1.42;;;4.00;91.60;;;;;;10123086;28;20110;-70
2021/11/30 08:05:08;;;;;;;2.42;1.35;;;4.00;91.80;;;;;;10117391;28;20021;-70
2021/11/30 08:09:59;;;;;;;1.35;0.90;;;4.10;91.60;;;;;;10108951;28;20115;-71
2021/11/30 08:14:50;;;;;;;2.25;1.00;;;4.10;91.60;;;;;;10118592;28;20078;-70
2021/11/30 08:19:42;;;;;;;2.85;1.40;;;4.00;91.60;;;;;;10121938;28;20036;-73
2021/11/30 08:24:34;;;;;;;3.95;1.35;;;3.90;91.60;;;;;;10116246;28;20053;-75
2021/11/30 08:29:25;;;;;;;4.68;1.23;;;4.00;91.70;;;;;;10120213;28;20025;-75
2021/11/30 08:34:16;;;;;;;2.80;1.27;;;4.10;91.70;;;;;;10125039;28;20475;-74
2021/11/30 08:39:06;;;;;;;1.50;0.90;;;4.00;91.70;;;;;;10127912;28;20139;-73
2021/11/30 08:43:57;;;;;;;2.08;1.20;;;4.10;91.70;;;;;;10129006;28;20025;-70
2021/11/30 08:48:48;;;;;;;0.85;0.57;;;4.10;91.70;;;;;;10128775;28;20498;-74
2021/11/30 08:53:38;;;;;;;3.30;1.17;;;4.00;91.80;;;;;;10129767;28;20108;-71
2021/11/30 08:58:29;;;;;;;1.40;1.17;;;4.00;91.80;;;;;;10122555;28;20047;-72
2021/11/30 09:03:25;;;;;;;1.90;1.35;;;4.20;91.90;;;;;;10125579;28;20024;-73
2021/11/30 09:08:16;;;;;;;1.83;1.13;;;4.10;91.90;;;;;;10121191;28;20039;-75
2021/11/30 09:13:07;;;;;;;2.05;1.17;;;4.10;91.90;;;;;;10124395;28;20049;-72
2021/11/30 09:17:58;;;;;;;2.17;1.20;;;4.10;91.90;;;;;;10127304;28;20064;-74
2021/11/30 09:22:50;;;;;;;1.88;1.33;;;4.10;92.00;;;;;;10129977;28;20023;-69
2021/11/30 09:27:43;;;;;;;1.42;1.08;;;4.10;92.00;;;;;;10123946;28;20392;-70
2021/11/30 09:32:34;;;;;;;2.53;1.00;;;4.30;92.00;;;;;;10128827;28;20037;-68
2021/11/30 09:37:24;;;;;;;1.20;0.73;;;4.30;92.00;;;;;;10121578;28;20035;-71
2021/11/30 09:42:17;;;;;;;1.95;1.13;;;4.20;92.10;;;;;;10112495;28;20021;-72
2021/11/30 09:47:08;;;;;;;1.30;0.90;;;4.30;92.10;;;;;;10116919;28;20520;-69
2021/11/30 09:51:59;;;;;;;2.33;1.35;;;4.20;92.20;;;;;;10127324;28;20044;-71
2021/11/30 09:56:50;;;;;;;3.58;1.23;;;4.30;92.20;;;;;;10116617;28;20049;-68
2021/11/30 10:01:40;;;;;;;3.13;0.90;;;4.30;92.10;;;;;;10121612;28;20033;-73
2021/11/30 10:06:32;;;;;;;2.35;0.68;;;4.40;92.10;;;;;;10115723;28;20032;-72
2021/11/30 10:11:35;;;;;;;2.67;1.48;;;4.50;92.20;;;;;;10124258;28;20056;-69
2021/11/30 10:16:25;;;;;;;0.63;0.50;;;4.50;92.10;;;;;;10122515;28;20047;-68
2021/11/30 10:21:20;;;;;;;1.27;0.80;;;4.50;92.20;;;;;;10125482;28;20031;-71
2021/11/30 10:26:12;;;;;;;1.40;1.30;;;4.60;92.20;;;;;;10122443;28;20064;-68
2021/11/30 10:31:08;;;;;;;1.35;0.75;;;4.70;92.20;;;;;;10124744;28;20123;-65
2021/11/30 10:36:00;;;;;;;1.15;0.70;;;4.70;92.50;;;;;;10117629;28;20052;-65
2021/11/30 10:40:51;;;;;;;1.27;0.88;;;4.70;92.30;;;;;;10121974;28;20094;-66
2021/11/30 10:45:45;;;;;;;1.80;0.60;;;4.80;92.30;;;;;;10120043;28;20580;-66
2021/11/30 10:50:56;;;;;;;1.20;0.85;;;4.80;92.30;;;;;;10125156;28;20043;-67
2021/11/30 10:55:50;;;;;;;2.80;0.88;;;4.80;92.20;;;;;;10117609;28;20024;-64
2021/11/30 11:00:42;;;;;;;1.40;0.52;;;4.90;92.20;;;;;;10121341;28;20035;-65
2021/11/30 11:05:39;;;;;;;1.65;1.10;;;4.90;92.20;;;;;;10123516;28;20036;-67
2021/11/30 11:10:31;;;;;;;4.20;0.90;;;5.00;92.20;;;;;;10123419;28;20024;-64
2021/11/30 11:15:41;;;;;;;0.47;0.47;;;5.00;92.20;;;;;;10118604;28;20126;-64
2021/11/30 11:20:31;;;;;;;2.00;1.05;;;5.20;92.20;;;;;;10121826;28;20173;-66
2021/11/30 11:25:30;;;;;;;0.63;0.43;;;5.20;92.10;;;;;;10118893;28;20572;-66
2021/11/30 11:30:21;;;;;;;1.60;0.80;;;5.20;92.10;;;;;;10122752;28;20537;-66
2021/11/30 11:35:12;;;;;;;0.30;0.20;;;5.30;92.00;;;;;;10117875;28;20032;-65
2021/11/30 11:40:03;;;;;;;3.38;0.57;;;5.40;92.00;;;;;;10120430;28;20047;-67
2021/11/30 11:44:56;;;;;;;0.80;0.50;;;5.40;92.00;;;;;;10121438;28;20031;-70
2021/11/30 11:49:49;;;;;;;0.65;0.40;;;5.40;91.90;;;;;;10119331;28;20039;-68
2021/11/30 11:54:39;;;;;;;0.95;0.52;;;5.50;91.90;;;;;;10107283;28;20329;-67
2021/11/30 11:59:40;;;;;;;1.73;0.82;;;5.40;91.90;;;;;;10106146;28;20028;-63
2021/11/30 12:04:41;;;;;;;1.80;1.10;;;5.40;92.00;;;;;;10116309;28;20029;-65
2021/11/30 12:09:33;;;;;;;0.80;0.50;;;5.40;92.10;;;;;;10112953;28;20055;-64
2021/11/30 12:14:44;;;;;;;2.22;1.00;;;5.40;92.20;;;;;;10119493;28;20102;-64
2021/11/30 12:19:47;;;;;;;0.77;0.63;;;5.30;92.30;;;;;;10130931;28;20084;-65
2021/11/30 12:24:47;;;;;;;1.35;0.70;;;5.30;92.40;;;;;;10120935;28;20021;-68
2021/11/30 12:29:38;;;;;;;0.35;0.35;;;5.20;92.50;;;;;;10122503;28;20332;-67
2021/11/30 12:34:45;;;;;;;1.08;0.55;;;5.20;92.60;;;;;;10117195;28;20497;-68
2021/11/30 12:40:12;;;;;;;0.95;0.60;;;5.30;92.60;;;;;;10121969;28;20286;-63
2021/11/30 12:45:04;;;;;;;0.35;0.32;;;5.30;92.60;;;;;;10122824;28;20371;-69
2021/11/30 12:49:56;;;;;;;0.30;0.30;;;5.30;92.60;;;;;;10111966;28;20021;-68
2021/11/30 12:54:51;;;;;;;1.20;0.60;;;5.30;92.60;;;;;;10118398;28;20090;-69
2021/11/30 12:59:42;;;;;;;4.53;0.70;;;5.30;92.70;;;;;;10121765;28;20083;-67
2021/11/30 13:04:33;;;;;;;0.20;0.20;;;5.40;92.70;;;;;;10128235;28;20328;-68
2021/11/30 13:09:41;;;;;;;0.40;0.32;;;5.40;92.70;;;;;;10123531;28;20176;-65
2021/11/30 13:14:36;;;;;;;0.40;0.30;;;5.40;92.60;;;;;;10123374;28;20131;-65
2021/11/30 13:19:34;;;;;;;2.88;0.50;;;5.40;92.70;;;;;;10124633;28;20032;-66
2021/11/30 13:24:34;;;;;;;1.88;0.55;;;5.40;92.70;;;;;;10123306;28;20035;-66
2021/11/30 13:29:27;;;;;;;2.17;0.50;;;5.40;92.70;;;;;;10126260;28;20051;-65
2021/11/30 13:34:17;;;;;;;1.25;0.88;;;5.40;92.70;;;;;;10125075;28;20356;-65
2021/11/30 13:39:08;;;;;;;0.75;0.40;;;5.50;92.70;;;;;;10125982;28;20299;-66
2021/11/30 13:43:59;;;;;;;0.95;0.47;;;5.40;92.70;;;;;;10124958;28;20413;-68
2021/11/30 13:49:00;;;;;;;2.80;0.68;;;5.40;92.70;;;;;;10124260;28;20036;-68
2021/11/30 13:53:58;;;;;;;0.52;0.50;;;5.40;92.60;;;;;;10123297;28;20145;-64
2021/11/30 13:58:58;;;;;;;1.92;0.63;;;5.40;92.60;;;;;;10126133;28;20113;-65
2021/11/30 14:03:53;;;;;;;1.00;0.70;;;5.40;92.70;;;;;;10124637;28;20021;-65
2021/11/30 14:08:43;;;;;;;0.80;0.60;;;5.40;92.60;;;;;;10120805;28;20023;-66
2021/11/30 14:13:34;;;;;;;2.42;0.60;;;5.50;92.60;;;;;;10118166;28;20048;-66
2021/11/30 14:18:25;;;;;;;1.27;0.75;;;5.50;92.60;;;;;;10120772;28;20098;-65
2021/11/30 14:23:19;;;;;;;4.88;0.65;;;5.50;92.50;;;;;;10123766;28;20283;-64
2021/11/30 14:28:16;;;;;;;0.93;0.57;;;5.50;92.50;;;;;;10123015;28;20191;-67
2021/11/30 14:33:09;;;;;;;0.77;0.52;;;5.60;92.50;;;;;;10122398;28;20074;-67
2021/11/30 14:38:00;;;;;;;0.38;0.38;;;5.60;92.40;;;;;;10117105;28;20042;-66
2021/11/30 14:42:52;;;;;;;0.70;0.60;;;5.50;92.40;;;;;;10125316;28;20070;-62
2021/11/30 14:47:44;;;;;;;0.80;0.50;;;5.60;92.50;;;;;;10108411;28;20089;-66
2021/11/30 14:52:45;;;;;;;0.70;0.50;;;5.60;92.40;;;;;;10124142;28;20063;-68
2021/11/30 14:57:35;;;;;;;0.93;0.57;;;5.50;92.40;;;;;;10113768;28;20039;-70
2021/11/30 15:02:26;;;;;;;0.75;0.52;;;5.50;92.50;;;;;;10122112;28;20120;-69
2021/11/30 15:07:17;;;;;;;1.40;0.68;;;5.40;92.40;;;;;;10120725;28;20048;-69
2021/11/30 15:12:09;;;;;;;0.70;0.40;;;5.40;92.50;;;;;;10124673;28;20508;-64
2021/11/30 15:17:03;;;;;;;1.98;0.82;;;5.40;92.40;;;;;;10119575;28;20067;-69
2021/11/30 15:22:19;;;;;;;1.10;0.57;;;5.40;92.40;;;;;;10115324;28;20074;-66
2021/11/30 15:27:21;;;;;;;0.30;0.28;;;5.40;92.40;;;;;;10112326;28;20041;-66
2021/11/30 15:32:16;;;;;;;1.13;0.47;;;5.40;92.40;;;;;;10115111;28;20039;-70
2021/11/30 15:37:08;;;;;;;1.02;0.52;;;5.40;92.40;;;;;;10119489;28;20079;-68
2021/11/30 15:42:01;;;;;;;1.70;0.50;;;5.40;92.40;;;;;;10119446;28;20036;-65
2021/11/30 15:46:52;;;;;;;0.80;0.40;;;5.40;92.40;;;;;;10121254;28;20063;-69
2021/11/30 15:51:46;;;;;;;0.52;0.30;;;5.30;92.40;;;;;;10119023;28;20052;-69
2021/11/30 16:01:46;;;;;;;0.85;0.40;;;5.30;92.40;;;;;;10110419;28;20127;-67
2021/11/30 16:06:37;;;;;;;1.38;0.63;;;5.30;92.50;;;;;;10104766;28;20129;-65
2021/11/30 16:11:28;;;;;;;0.90;0.60;;;5.30;92.50;;;;;;10108047;28;20045;-67
2021/11/30 16:16:21;;;;;;;1.38;0.50;;;5.20;92.70;;;;;;10118931;28;20052;-69
2021/11/30 16:21:12;;;;;;;1.23;0.60;;;5.20;92.70;;;;;;10122150;28;20048;-66
2021/11/30 16:26:03;;;;;;;0.95;0.63;;;5.20;92.60;;;;;;10115817;28;20438;-66
2021/11/30 16:30:55;;;;;;;3.08;0.68;;;5.20;92.70;;;;;;10120353;28;20036;-74
2021/11/30 16:35:46;;;;;;;1.08;0.90;;;5.10;92.80;;;;;;10126573;28;20017;-68
2021/11/30 16:40:36;;;;;;;3.13;0.88;;;5.10;92.80;;;;;;10121160;28;20039;-69
2021/11/30 16:45:27;;;;;;;1.65;0.57;;;5.10;93.00;;;;;;10123216;28;20029;-65
2021/11/30 16:50:17;;;;;;;1.27;0.50;;;5.10;93.00;;;;;;10109012;28;20063;-71
2021/11/30 16:55:10;;;;;;;0.90;0.50;;;5.10;93.10;;;;;;10124115;28;20079;-68
2021/11/30 17:00:01;;;;;;;1.23;0.52;;;5.10;93.10;;;;;;10126685;28;20041;-70
2021/11/30 17:04:51;;;;;;;1.10;0.63;;;5.10;93.10;;;;;;10127495;28;20024;-68
2021/11/30 17:09:42;;;;;;;1.30;0.68;;;5.10;93.10;;;;;;10128905;28;20056;-70
2021/11/30 17:14:33;;;;;;;1.85;1.15;;;5.10;93.20;;;;;;10127093;28;20041;-70
2021/11/30 17:19:24;;;;;;;1.05;0.57;;;5.10;93.20;;;;;;10127286;28;20043;-70
2021/11/30 17:24:18;;;;;;;0.30;0.30;;;5.10;93.20;;;;;;10123228;28;20040;-70
2021/11/30 17:29:09;;;;;;;0.30;0.30;;;5.10;93.40;;;;;;10127052;28;20043;-68
2021/11/30 17:34:00;;;;;;;0.68;0.43;;;5.00;93.40;;;;;;10123900;28;20028;-68
2021/11/30 17:38:51;;;;;;;1.38;0.57;;;5.10;93.40;;;;;;10133710;28;20135;-69
2021/11/30 17:43:42;;;;;;;1.70;0.70;;;5.10;93.40;;;;;;10116035;28;20022;-71
2021/11/30 17:48:38;;;;;;;1.48;0.80;;;5.10;93.50;;;;;;10123852;28;20380;-69
2021/11/30 17:53:29;;;;;;;1.85;0.90;;;5.10;93.50;;;;;;10125285;28;20108;-71
2021/11/30 17:58:22;;;;;;;2.50;0.60;;;5.20;93.50;;;;;;10126810;28;20076;-73
2021/11/30 18:03:13;;;;;;;1.00;0.60;;;5.20;93.40;;;;;;10135666;28;20033;-69
2021/11/30 18:08:04;;;;;;;1.63;0.98;;;5.20;93.80;;;;;;10120368;28;20025;-71
2021/11/30 18:12:57;;;;;;;1.30;0.82;;;5.10;93.50;;;;;;10127187;28;20386;-70
2021/11/30 18:17:48;;;;;;;1.10;0.77;;;5.10;93.60;;;;;;10122526;28;20066;-69
2021/11/30 18:22:38;;;;;;;2.30;0.70;;;5.20;93.50;;;;;;10122784;28;20112;-70
2021/11/30 18:27:29;;;;;;;0.68;0.63;;;5.20;93.50;;;;;;10111489;28;20028;-70
2021/11/30 18:32:20;;;;;;;0.90;0.60;;;5.20;93.70;;;;;;10121289;28;20082;-63
2021/11/30 18:37:11;;;;;;;3.38;1.38;;;5.10;93.70;;;;;;10116523;28;20041;-72
2021/11/30 18:42:02;;;;;;;1.92;0.82;;;5.00;93.80;;;;;;10124540;28;20509;-74
2021/11/30 18:46:53;;;;;;;3.05;0.70;;;5.00;93.90;;;;;;10142352;28;20067;-75
2021/11/30 18:51:44;;;;;;;0.93;0.73;;;4.90;94.00;;;;;;10125364;28;20102;-74
2021/11/30 18:56:35;;;;;;;1.15;0.85;;;4.90;94.00;;;;;;10106692;28;20057;-71
2021/11/30 19:01:25;;;;;;;1.00;0.90;;;4.90;94.10;;;;;;10131753;28;20035;-78
2021/11/30 19:06:20;;;;;;;0.75;0.65;;;4.80;94.20;;;;;;10134806;28;20040;-72
2021/11/30 19:11:11;;;;;;;1.73;0.75;;;5.00;94.10;;;;;;10124055;28;20035;-75
2021/11/30 19:16:06;;;;;;;1.27;0.80;;;5.00;94.20;;;;;;10124275;28;20059;-77
2021/11/30 19:20:56;;;;;;;0.70;0.70;;;5.00;94.20;;;;;;10113002;28;20501;-75
2021/11/30 19:25:49;;;;;;;1.63;0.80;;;4.90;94.40;;;;;;10127424;28;20111;-76
2021/11/30 19:30:40;;;;;;;1.48;0.90;;;4.90;94.50;;;;;;10126013;28;20078;-73
2021/11/30 19:35:31;;;;;;;1.85;0.52;;;4.90;94.60;;;;;;10120984;28;20399;-74
2021/11/30 19:40:23;;;;;;;1.60;0.70;;;4.80;94.70;;;;;;10122495;28;20048;-74
2021/11/30 19:45:16;;;;;;;1.17;0.90;;;4.90;94.50;;;;;;10123851;28;20379;-70
2021/11/30 19:50:07;;;;;;;0.77;0.60;;;5.00;94.50;;;;;;10122527;28;20172;-71
2021/11/30 19:54:58;;;;;;;1.52;0.70;;;5.00;94.60;;;;;;10114280;28;20021;-69
2021/11/30 19:59:49;;;;;;;0.52;0.40;;;5.00;94.40;;;;;;10120430;28;20063;-74
2021/11/30 20:09:49;;;;;;;1.35;0.80;;;5.10;94.60;;;;;;10118677;28;20031;-75
2021/11/30 20:14:44;;;;;;;1.45;1.13;;;5.00;94.60;;;;;;10134010;28;20145;-74
2021/11/30 20:19:35;;;;;;;1.87;0.57;;;5.00;94.60;;;;;;10122682;28;20032;-74
2021/11/30 20:24:26;;;;;;;1.75;0.73;;;5.10;94.60;;;;;;10113503;28;20109;-73
2021/11/30 20:29:16;;;;;;;0.52;0.45;;;5.00;94.70;;;;;;10125051;28;20472;-73
2021/11/30 20:34:10;;;;;;;1.67;0.98;;;5.10;94.70;;;;;;10130520;28;20032;-80
2021/11/30 20:39:02;;;;;;;1.35;0.68;;;5.10;94.70;;;;;;10130559;28;20110;-80
2021/11/30 20:43:55;;;;;;;1.85;0.60;;;5.20;94.70;;;;;;10126134;28;20039;-78
2021/11/30 20:48:46;;;;;;;2.83;0.70;;;5.20;94.70;;;;;;10127699;28;20029;-70
2021/11/30 20:53:38;;;;;;;1.05;0.70;;;5.20;94.80;;;;;;10123727;28;20029;-70
2021/11/30 20:58:29;;;;;;;1.40;0.80;;;5.20;94.70;;;;;;10122757;28;20036;-71
2021/11/30 21:03:20;;;;;;;0.82;0.60;;;5.30;94.70;;;;;;10117478;28;20024;-70
2021/11/30 21:08:14;;;;;;;0.75;0.50;;;5.30;94.70;;;;;;10122403;28;20094;-75
2021/11/30 21:13:05;;;;;;;1.70;0.88;;;5.20;94.70;;;;;;10118964;28;20651;-76
2021/11/30 21:17:58;;;;;;;3.20;1.10;;;5.20;94.70;;;;;;10123027;28;20063;-76
2021/11/30 21:22:51;;;;;;;1.52;0.80;;;5.30;94.70;;;;;;10122470;28;20036;-76
2021/11/30 21:27:44;;;;;;;2.28;0.90;;;5.20;94.80;;;;;;10128390;28;20518;-78
2021/11/30 21:32:35;;;;;;;4.47;1.10;;;5.20;94.80;;;;;;10120371;28;20029;-70
2021/11/30 21:37:26;;;;;;;2.05;1.05;;;5.20;94.80;;;;;;10132412;28;20047;-69
2021/11/30 21:42:19;;;;;;;2.88;0.85;;;5.30;94.80;;;;;;10113154;28;20025;-71
2021/11/30 21:47:13;;;;;;;1.92;1.00;;;5.30;94.70;;;;;;10127448;28;20559;-75
2021/11/30 21:52:04;;;;;;;1.05;0.88;;;5.30;94.80;;;;;;10127723;28;20032;-74
2021/11/30 21:56:55;;;;;;;0.93;0.70;;;5.30;94.80;;;;;;10125918;28;20141;-75
2021/11/30 22:01:46;;;;;;;1.83;1.00;;;5.30;94.80;;;;;;10129405;28;20111;-76
2021/11/30 22:06:36;;;;;;;2.03;0.95;;;5.30;94.80;;;;;;10128602;28;20486;-77
2021/11/30 22:11:29;;;;;;;2.20;1.13;;;5.30;94.80;;;;;;10126976;28;20384;-74
2021/11/30 22:16:21;;;;;;;2.22;1.33;;;5.30;94.80;;;;;;10114741;28;20063;-73
2021/11/30 22:21:12;;;;;;;1.35;1.10;;;5.40;94.80;;;;;;10121106;28;20033;-73
2021/11/30 22:26:03;;;;;;;1.33;0.93;;;5.40;94.80;;;;;;10119084;28;20025;-73
2021/11/30 22:30:55;;;;;;;3.05;1.00;;;5.40;94.80;;;;;;10131370;28;20040;-72
2021/11/30 22:35:45;;;;;;;1.95;1.10;;;5.40;94.80;;;;;;10113195;28;20028;-72
2021/11/30 22:40:38;;;;;;;2.17;1.42;;;5.40;94.80;;;;;;10113629;28;20047;-72
2021/11/30 22:45:28;;;;;;;3.78;1.23;;;5.30;94.90;;;;;;10116551;28;20033;-72
2021/11/30 22:50:20;;;;;;;1.23;0.80;;;5.40;94.80;;;;;;10123873;28;20043;-73
2021/11/30 22:55:12;;;;;;;1.20;1.00;;;5.40;94.90;;;;;;10129031;28;20016;-71
2021/11/30 23:00:13;;;;;;;3.50;1.20;;;5.30;95.10;;;;;;10108868;28;20063;-73
2021/11/30 23:05:04;;;;;;;3.22;1.23;;;5.30;95.00;;;;;;10116527;28;20038;-74
2021/11/30 23:09:54;;;;;;;1.73;1.13;;;5.30;95.10;;;;;;10125493;28;20119;-75
2021/11/30 23:14:45;;;;;;;1.45;1.05;;;5.40;95.00;;;;;;10119487;28;20409;-73
2021/11/30 23:19:36;;;;;;;1.02;0.90;;;5.30;95.00;;;;;;10119193;28;20491;-73
2021/11/30 23:24:37;;;;;;;2.80;1.30;;;5.30;95.00;;;;;;10128125;28;20202;-74
2021/11/30 23:29:27;;;;;;;1.75;1.27;;;5.40;95.10;;;;;;10129941;28;20027;-74
2021/11/30 23:34:18;;;;;;;2.47;0.90;;;5.40;95.00;;;;;;10122645;28;20116;-75
2021/11/30 23:39:09;;;;;;;1.42;0.85;;;5.50;94.90;;;;;;10128547;28;20125;-74
2021/11/30 23:44:00;;;;;;;3.83;1.10;;;5.50;94.90;;;;;;10134654;28;20054;-74
2021/11/30 23:48:52;;;;;;;1.45;1.02;;;5.50;94.90;;;;;;10114453;28;20558;-73
2021/11/30 23:53:43;;;;;;;1.80;1.15;;;5.50;94.90;;;;;;10110537;28;20299;-73
2021/11/30 23:58:36;;;;;;;1.83;1.15;;;5.50;94.90;;;;;;10113334;28;20056;-74
